Time;durP1;ratioP1;P1;durP2;ratioP2;P2;SDS_P1;SDS_P2;PMS_P1;PMS_P2;Temp;Humidity;BMP_temperature;BMP_pressure;BME280_temperature;BME280_humidity;BME280_pressure;Samples;Min_cycle;Max_cycle;Signal;HPM_P1;HPM_P2
2023/09/18 00:01:49;;;;;;;9.13;4.97;;;17.70;97.80;;;;;;5034641;28;20496;-74
2023/09/18 00:04:16;;;;;;;6.80;4.63;;;17.70;97.60;;;;;;5034248;28;20438;-74
2023/09/18 00:06:43;;;;;;;4.83;4.10;;;17.70;97.30;;;;;;5034536;28;20518;-75
2023/09/18 00:09:13;;;;;;;8.50;5.17;;;17.70;97.30;;;;;;5034411;28;20449;-74
2023/09/18 00:11:41;;;;;;;7.23;4.80;;;17.60;96.90;;;;;;5034123;28;20484;-75
2023/09/18 00:14:09;;;;;;;5.43;4.47;;;17.60;97.60;;;;;;5034415;28;20434;-75
2023/09/18 00:16:36;;;;;;;9.10;5.13;;;17.50;97.90;;;;;;5034231;28;20430;-74
2023/09/18 00:19:03;;;;;;;5.97;4.43;;;17.60;98.00;;;;;;5034031;28;20492;-74
2023/09/18 00:21:31;;;;;;;7.17;5.03;;;17.60;97.90;;;;;;5034228;28;20470;-74
2023/09/18 00:23:59;;;;;;;5.53;4.20;;;17.50;98.00;;;;;;5051212;28;20529;-75
2023/09/18 00:26:26;;;;;;;5.57;4.20;;;17.50;97.60;;;;;;5053770;28;20429;-74
2023/09/18 00:28:54;;;;;;;4.90;4.07;;;17.40;97.30;;;;;;5054127;28;20480;-74
2023/09/18 00:31:21;;;;;;;7.07;4.70;;;17.40;97.30;;;;;;5053669;28;20923;-74
2023/09/18 00:33:49;;;;;;;6.03;5.10;;;17.40;97.60;;;;;;5053973;28;20429;-74
2023/09/18 00:36:16;;;;;;;5.83;4.77;;;17.40;97.80;;;;;;5053442;28;20438;-74
2023/09/18 00:38:44;;;;;;;5.00;4.50;;;17.40;98.00;;;;;;5053540;28;20531;-75
2023/09/18 00:41:11;;;;;;;5.93;5.20;;;17.40;98.00;;;;;;5052311;28;20441;-74
2023/09/18 00:43:38;;;;;;;8.00;5.00;;;17.40;97.90;;;;;;5053533;28;20908;-74
2023/09/18 00:46:06;;;;;;;5.77;4.40;;;17.40;97.30;;;;;;5053457;28;20445;-74
2023/09/18 00:48:33;;;;;;;5.37;4.50;;;17.30;96.80;;;;;;5053076;28;20446;-75
2023/09/18 00:51:00;;;;;;;6.60;4.53;;;17.20;97.00;;;;;;5053769;28;20475;-74
2023/09/18 00:53:27;;;;;;;8.73;4.80;;;17.10;97.60;;;;;;5053772;28;20433;-74
2023/09/18 00:55:58;;;;;;;7.77;5.10;;;17.10;98.00;;;;;;5053736;28;20449;-74
2023/09/18 00:58:26;;;;;;;5.67;4.97;;;17.00;98.50;;;;;;5053805;28;20582;-75
2023/09/18 01:00:53;;;;;;;5.80;4.57;;;17.00;98.70;;;;;;5053077;28;20461;-74
2023/09/18 01:03:25;;;;;;;4.93;4.10;;;17.00;99.30;;;;;;5053653;28;20429;-75
2023/09/18 01:05:52;;;;;;;6.20;5.10;;;17.10;98.90;;;;;;5053768;28;20422;-74
2023/09/18 01:08:19;;;;;;;6.97;5.17;;;17.10;98.80;;;;;;5052892;28;20449;-74
2023/09/18 01:10:55;;;;;;;7.50;4.43;;;17.10;98.60;;;;;;5052760;28;20477;-74
2023/09/18 01:13:28;;;;;;;9.90;4.33;;;17.10;98.70;;;;;;5052770;28;20455;-74
2023/09/18 01:16:04;;;;;;;5.53;3.90;;;17.00;98.20;;;;;;5053468;28;20477;-74
2023/09/18 01:18:32;;;;;;;8.10;5.37;;;17.00;98.20;;;;;;5053088;28;20465;-74
2023/09/18 01:20:59;;;;;;;8.70;5.40;;;17.00;98.30;;;;;;5053444;28;20571;-74
2023/09/18 01:23:27;;;;;;;5.40;4.13;;;17.00;98.50;;;;;;5053046;28;20434;-74
2023/09/18 01:25:54;;;;;;;5.43;3.90;;;17.00;98.50;;;;;;5053531;28;20499;-74
2023/09/18 01:28:21;;;;;;;6.33;4.23;;;17.00;98.00;;;;;;5052983;28;20442;-75
2023/09/18 01:31:03;;;;;;;5.63;4.30;;;16.90;97.70;;;;;;5042808;28;20442;-73
2023/09/18 01:33:31;;;;;;;4.63;3.80;;;16.90;97.50;;;;;;5033380;28;20434;-74
2023/09/18 01:36:00;;;;;;;6.73;4.00;;;16.80;97.60;;;;;;5039505;28;20445;-74
2023/09/18 01:38:29;;;;;;;9.53;5.13;;;16.80;97.60;;;;;;5053271;28;20598;-74
2023/09/18 01:40:56;;;;;;;5.43;4.30;;;16.70;97.80;;;;;;5053436;28;20848;-74
2023/09/18 01:43:23;;;;;;;6.50;4.20;;;16.70;98.00;;;;;;5053338;28;20444;-74
2023/09/18 01:45:51;;;;;;;6.37;4.23;;;16.60;98.40;;;;;;5052308;28;20438;-74
2023/09/18 01:48:18;;;;;;;7.03;5.00;;;16.70;98.60;;;;;;5045965;28;20512;-74
2023/09/18 01:50:45;;;;;;;5.00;4.20;;;16.70;98.30;;;;;;5033110;28;20439;-74
2023/09/18 01:53:12;;;;;;;5.03;4.30;;;16.60;97.40;;;;;;5034031;28;20500;-74
2023/09/18 01:55:41;;;;;;;6.17;4.37;;;16.60;97.00;;;;;;5037773;28;20932;-74
2023/09/18 01:58:09;;;;;;;6.07;4.50;;;16.60;96.80;;;;;;5036863;28;20480;-75
2023/09/18 02:00:36;;;;;;;11.17;4.00;;;16.50;97.00;;;;;;5042412;28;20886;-74
2023/09/18 02:03:04;;;;;;;7.23;4.37;;;16.40;97.20;;;;;;5056573;28;20467;-74
2023/09/18 02:05:32;;;;;;;4.30;3.50;;;16.40;97.30;;;;;;5056747;28;20452;-75
2023/09/18 02:08:02;;;;;;;6.60;4.20;;;16.40;97.50;;;;;;5056936;28;20441;-74
2023/09/18 02:10:30;;;;;;;4.70;3.83;;;16.40;97.40;;;;;;5037520;28;20820;-74
2023/09/18 02:12:58;;;;;;;7.63;4.10;;;16.40;97.70;;;;;;5036717;28;20442;-74
2023/09/18 02:15:25;;;;;;;4.80;4.30;;;16.30;97.60;;;;;;5036795;28;20462;-74
2023/09/18 02:17:53;;;;;;;6.33;4.60;;;16.40;97.60;;;;;;5036618;28;20559;-74
2023/09/18 02:20:20;;;;;;;8.13;4.23;;;16.30;97.70;;;;;;5036609;28;20469;-74
2023/09/18 02:22:48;;;;;;;7.07;5.37;;;16.30;97.70;;;;;;5036514;28;20434;-74
2023/09/18 02:25:19;;;;;;;6.80;4.63;;;16.30;98.10;;;;;;5036547;28;20482;-74
2023/09/18 02:27:46;;;;;;;5.57;4.10;;;16.30;98.50;;;;;;5036615;28;20821;-74
2023/09/18 02:30:19;;;;;;;6.33;4.87;;;16.30;98.80;;;;;;5036243;28;20438;-74
2023/09/18 02:32:46;;;;;;;5.50;4.60;;;16.30;98.80;;;;;;5053715;28;20464;-74
2023/09/18 02:35:13;;;;;;;5.33;4.30;;;16.30;98.80;;;;;;5056283;28;20840;-75
2023/09/18 02:37:40;;;;;;;5.87;4.90;;;16.30;98.80;;;;;;5055883;28;20963;-74
2023/09/18 02:40:08;;;;;;;4.77;3.80;;;16.30;98.70;;;;;;5055648;28;20494;-74
2023/09/18 02:42:35;;;;;;;5.37;3.77;;;16.20;98.40;;;;;;5055133;28;20987;-74
2023/09/18 02:45:02;;;;;;;5.50;4.17;;;16.20;97.90;;;;;;5055989;28;20493;-74
2023/09/18 02:47:30;;;;;;;5.47;4.33;;;16.10;97.90;;;;;;5056015;28;20825;-74
2023/09/18 02:49:57;;;;;;;5.20;4.70;;;16.10;97.60;;;;;;5056057;28;20448;-74
2023/09/18 02:52:24;;;;;;;5.60;4.63;;;16.10;97.50;;;;;;5054914;28;20437;-74
2023/09/18 02:54:52;;;;;;;5.70;4.20;;;16.10;97.60;;;;;;5055920;28;20437;-74
2023/09/18 02:57:19;;;;;;;5.50;3.40;;;16.00;97.80;;;;;;5055886;28;20499;-74
2023/09/18 02:59:45;;;;;;;14.47;4.37;;;16.00;97.90;;;;;;5055419;28;20986;-74
2023/09/18 03:02:12;;;;;;;5.93;4.20;;;16.00;98.10;;;;;;5055430;28;20830;-74
2023/09/18 03:04:41;;;;;;;8.23;3.80;;;16.00;98.10;;;;;;5054543;28;20465;-74
2023/09/18 03:07:08;;;;;;;7.53;4.67;;;16.00;98.20;;;;;;5035189;28;20473;-74
2023/09/18 03:09:35;;;;;;;7.13;3.47;;;15.90;97.90;;;;;;5035639;28;20514;-74
2023/09/18 03:12:02;;;;;;;5.13;3.90;;;15.90;97.70;;;;;;5035336;28;20442;-74
2023/09/18 03:14:29;;;;;;;5.50;4.07;;;15.90;98.00;;;;;;5035660;28;20465;-74
2023/09/18 03:16:57;;;;;;;7.00;4.80;;;15.90;98.20;;;;;;5035012;28;20924;-75
2023/09/18 03:19:24;;;;;;;6.27;3.57;;;15.90;98.40;;;;;;5034976;28;20513;-75
2023/09/18 03:21:52;;;;;;;6.23;3.53;;;15.90;98.70;;;;;;5035133;28;20929;-74
2023/09/18 03:24:19;;;;;;;6.10;4.30;;;15.90;98.40;;;;;;5035417;28;20470;-74
2023/09/18 03:26:46;;;;;;;5.20;3.87;;;16.00;98.00;;;;;;5035343;28;20496;-74
2023/09/18 03:29:13;;;;;;;7.70;4.67;;;15.90;97.90;;;;;;5035358;28;20448;-74
2023/09/18 03:31:40;;;;;;;10.87;3.60;;;15.90;97.30;;;;;;5055069;28;20837;-74
2023/09/18 03:34:07;;;;;;;5.30;3.60;;;15.90;97.00;;;;;;5055139;28;20483;-74
2023/09/18 03:36:35;;;;;;;4.93;3.57;;;15.90;96.90;;;;;;5054847;28;20444;-75
2023/09/18 03:39:04;;;;;;;6.23;4.00;;;15.80;97.00;;;;;;5054592;28;20511;-74
2023/09/18 03:41:33;;;;;;;8.03;4.60;;;15.80;97.20;;;;;;5050650;28;20449;-74
2023/09/18 03:44:00;;;;;;;8.17;4.30;;;15.70;97.40;;;;;;5034980;28;20445;-74
2023/09/18 03:46:27;;;;;;;4.90;4.10;;;15.70;97.80;;;;;;5034403;28;20489;-74
2023/09/18 03:48:55;;;;;;;8.90;4.27;;;15.70;98.00;;;;;;5034931;28;20508;-75
2023/09/18 03:51:22;;;;;;;5.27;4.60;;;15.70;98.40;;;;;;5034922;28;20434;-74
2023/09/18 03:53:49;;;;;;;7.33;5.40;;;15.70;98.80;;;;;;5039120;28;20975;-74
2023/09/18 03:56:17;;;;;;;5.77;4.37;;;15.70;98.90;;;;;;5054773;28;20437;-74
2023/09/18 03:58:46;;;;;;;4.77;3.47;;;15.70;98.60;;;;;;5054588;28;20807;-74
2023/09/18 04:01:13;;;;;;;6.17;4.57;;;15.70;98.40;;;;;;5054135;28;20471;-74
2023/09/18 04:03:42;;;;;;;5.17;4.03;;;;;;;;;;5054552;28;20469;-75
2023/09/18 04:06:10;;;;;;;5.17;4.53;;;;;;;;;;5047421;28;20480;-74
2023/09/18 04:08:37;;;;;;;5.40;4.40;;;;;;;;;;5034491;28;20446;-75
2023/09/18 04:11:04;;;;;;;6.00;3.53;;;;;;;;;;5034727;28;20445;-75
2023/09/18 04:13:33;;;;;;;5.17;4.07;;;;;;;;;;5034457;28;20426;-74
2023/09/18 04:16:01;;;;;;;7.90;3.63;;;;;;;;;;5033396;28;20795;-74
2023/09/18 04:18:28;;;;;;;4.10;3.07;;;;;;;;;;5041682;28;20522;-74
2023/09/18 04:20:56;;;;;;;10.23;3.27;;;;;;;;;;5051951;28;20495;-74
2023/09/18 04:23:25;;;;;;;7.20;3.17;;;;;;;;;;5053499;28;20529;-76
2023/09/18 04:25:53;;;;;;;4.53;2.80;;;;;;;;;;5054174;28;20460;-74
2023/09/18 04:28:21;;;;;;;4.50;3.90;;;;;;;;;;5054225;28;20468;-74
2023/09/18 04:30:50;;;;;;;4.70;3.67;;;;;;;;;;5049926;28;20442;-74
2023/09/18 04:33:17;;;;;;;5.00;3.10;;;;;;;;;;5034072;28;20530;-75
2023/09/18 04:35:45;;;;;;;4.77;3.30;;;;;;;;;;5033955;28;20496;-75
2023/09/18 04:38:14;;;;;;;4.80;3.33;;;;;;;;;;5033621;28;20917;-74
2023/09/18 04:40:41;;;;;;;8.43;4.17;;;;;;;;;;5034128;28;20473;-74
2023/09/18 04:43:08;;;;;;;8.23;3.00;;;;;;;;;;5039197;28;20444;-74
2023/09/18 04:45:36;;;;;;;4.77;3.00;;;;;;;;;;5053814;28;20850;-74
2023/09/18 04:48:05;;;;;;;5.07;4.27;;;;;;;;;;5053805;28;20772;-75
2023/09/18 04:50:33;;;;;;;4.60;3.07;;;;;;;;;;5053490;28;20437;-76
2023/09/18 04:53:01;;;;;;;4.60;3.30;;;;;;;;;;5053489;28;20491;-74
2023/09/18 04:55:29;;;;;;;5.23;3.53;;;;;;;;;;5046229;28;20819;-74
2023/09/18 04:57:58;;;;;;;6.00;2.83;;;;;;;;;;5031204;28;20499;-75
2023/09/18 05:00:26;;;;;;;18.77;4.77;;;;;;;;;;5031182;28;20572;-74
2023/09/18 05:02:54;;;;;;;5.80;3.53;;;;;;;;;;5031801;28;20447;-74
2023/09/18 05:05:24;;;;;;;5.80;3.80;;;;;;;;;;5031640;28;20438;-74
2023/09/18 05:07:53;;;;;;;9.53;3.40;;;;;;;;;;5043174;28;20479;-74
2023/09/18 05:10:20;;;;;;;7.63;3.90;;;;;;;;;;5045588;28;20830;-74
2023/09/18 05:12:49;;;;;;;5.23;3.50;;;;;;;;;;5031730;28;20507;-74
2023/09/18 05:15:18;;;;;;;4.70;3.43;;;;;;;;;;5031950;28;20436;-74
2023/09/18 05:17:46;;;;;;;4.97;3.13;;;;;;;;;;5032484;28;20475;-73
2023/09/18 05:20:15;;;;;;;8.03;4.23;;;;;;;;;;5034609;28;20551;-74
2023/09/18 05:22:44;;;;;;;5.43;4.13;;;;;;;;;;5029515;28;20465;-74
2023/09/18 05:25:12;;;;;;;7.63;4.80;;;;;;;;;;5032396;28;20520;-75
2023/09/18 05:27:43;;;;;;;7.10;4.50;;;;;;;;;;5034052;28;20516;-75
2023/09/18 05:30:14;;;;;;;8.90;5.40;;;;;;;;;;5035986;28;20436;-74
2023/09/18 05:32:42;;;;;;;6.33;4.50;;;;;;;;;;5036311;28;20832;-74
2023/09/18 05:35:12;;;;;;;11.80;4.47;;;;;;;;;;5036277;28;20519;-74
2023/09/18 05:37:39;;;;;;;7.33;4.50;;;;;;;;;;5036559;28;20492;-74
2023/09/18 05:40:10;;;;;;;7.70;5.00;;;;;;;;;;5035774;28;20550;-74
2023/09/18 05:42:37;;;;;;;10.57;5.50;;;;;;;;;;5036329;28;20851;-75
2023/09/18 05:45:06;;;;;;;10.13;7.47;;;;;;;;;;5035879;28;20441;-74
2023/09/18 05:47:35;;;;;;;11.43;7.57;;;;;;;;;;5035829;28;20484;-74
2023/09/18 05:50:05;;;;;;;11.50;6.67;;;;;;;;;;5036074;28;20465;-74
2023/09/18 05:52:32;;;;;;;9.13;6.63;;;;;;;;;;5036126;28;20779;-74
2023/09/18 05:55:00;;;;;;;9.43;6.00;;;;;;;;;;5036079;28;20449;-74
2023/09/18 05:57:29;;;;;;;8.23;4.57;;;;;;;;;;5035637;28;20450;-74
2023/09/18 05:59:57;;;;;;;6.10;3.50;;;;;;;;;;5046108;28;20500;-74
2023/09/18 06:02:24;;;;;;;6.83;3.87;;;;;;;;;;5051165;28;20437;-74
2023/09/18 06:04:57;;;;;;;8.40;4.23;;;15.60;98.70;;;;;;5056344;28;20503;-74
2023/09/18 06:07:25;;;;;;;8.30;4.30;;;;;;;;;;5051027;28;20435;-74
2023/09/18 06:09:52;;;;;;;5.30;4.03;;;;;;;;;;5055936;28;20499;-74
2023/09/18 06:12:19;;;;;;;4.83;3.10;;;;;;;;;;5055880;28;20468;-74
2023/09/18 06:14:48;;;;;;;9.93;4.67;;;;;;;;;;5055898;28;20437;-74
2023/09/18 06:17:15;;;;;;;8.20;4.90;;;;;;;;;;5055986;28;20438;-74
2023/09/18 06:19:43;;;;;;;5.63;3.23;;;;;;;;;;5055978;28;20484;-74
2023/09/18 06:22:10;;;;;;;4.50;3.40;;;;;;;;;;5055833;28;20916;-74
2023/09/18 06:24:37;;;;;;;4.90;3.53;;;;;;;;;;5056024;28;20441;-74
2023/09/18 06:27:05;;;;;;;8.93;4.03;;;;;;;;;;5055684;28;20437;-74
2023/09/18 06:29:32;;;;;;;8.03;4.20;;;;;;;;;;5056114;28;20433;-74
2023/09/18 06:32:01;;;;;;;7.07;3.30;;;;;;;;;;5055600;28;20434;-74
2023/09/18 06:34:29;;;;;;;5.07;3.20;;;;;;;;;;5055681;28;20868;-74
2023/09/18 06:36:56;;;;;;;5.27;3.27;;;;;;;;;;5055522;28;20465;-74
2023/09/18 06:39:25;;;;;;;5.40;3.70;;;;;;;;;;5054969;28;20970;-74
2023/09/18 06:41:53;;;;;;;4.87;3.63;;;;;;;;;;5055862;28;20436;-74
2023/09/18 06:44:23;;;;;;;6.17;2.80;;;;;;;;;;5055403;28;20975;-74
2023/09/18 06:46:50;;;;;;;7.43;3.57;;;;;;;;;;5055602;28;20442;-74
2023/09/18 06:49:19;;;;;;;5.17;3.87;;;;;;;;;;5055367;28;20529;-74
2023/09/18 06:51:46;;;;;;;4.47;2.67;;;;;;;;;;5055305;28;20957;-74
2023/09/18 06:54:14;;;;;;;9.23;3.60;;;;;;;;;;5055458;28;20460;-74
2023/09/18 06:56:41;;;;;;;8.13;4.50;;;;;;;;;;5055242;28;20937;-74
2023/09/18 06:59:08;;;;;;;9.20;4.50;;;;;;;;;;5055413;28;20477;-75
2023/09/18 07:01:36;;;;;;;9.00;5.00;;;;;;;;;;5055462;28;20874;-74
2023/09/18 07:04:08;;;;;;;8.70;3.80;;;;;;;;;;5055056;28;20433;-74
2023/09/18 07:06:37;;;;;;;9.30;3.90;;;;;;;;;;5055004;28;20422;-74
2023/09/18 07:09:06;;;;;;;9.40;3.03;;;;;;;;;;5054933;28;20461;-74
2023/09/18 07:11:34;;;;;;;6.67;3.43;;;;;;;;;;5055213;28;20442;-74
2023/09/18 07:14:06;;;;;;;6.23;3.70;;;;;;;;;;5054802;28;20915;-74
2023/09/18 07:16:33;;;;;;;7.93;3.13;;;;;;;;;;5055187;28;20422;-75
2023/09/18 07:19:01;;;;;;;12.33;3.57;;;;;;;;;;5054659;28;20943;-75
2023/09/18 07:21:29;;;;;;;9.93;3.60;;;;;;;;;;5054997;28;20791;-75
2023/09/18 07:23:58;;;;;;;8.13;3.43;;;;;;;;;;5055050;28;20444;-75
2023/09/18 07:26:25;;;;;;;5.70;2.53;;;;;;;;;;5054934;28;20938;-74
2023/09/18 07:28:53;;;;;;;8.70;3.27;;;;;;;;;;5054652;28;20935;-75
2023/09/18 07:31:22;;;;;;;6.20;2.87;;;;;;;;;;5054909;28;20434;-75
2023/09/18 07:33:51;;;;;;;9.53;2.70;;;;;;;;;;5054416;28;20496;-75
2023/09/18 07:36:19;;;;;;;10.33;3.30;;;;;;;;;;5054767;28;20520;-74
2023/09/18 07:38:47;;;;;;;9.50;2.90;;;;;;;;;;5054764;28;20519;-74
2023/09/18 07:41:16;;;;;;;10.20;4.23;;;;;;;;;;5054519;28;20595;-75
2023/09/18 07:43:43;;;;;;;10.13;3.03;;;;;;;;;;5054552;28;20525;-75
2023/09/18 07:46:10;;;;;;;10.40;3.60;;;;;;;;;;5054552;28;20436;-75
2023/09/18 07:48:40;;;;;;;7.53;3.13;;;;;;;;;;5054837;28;20439;-74
2023/09/18 07:51:07;;;;;;;7.43;2.67;;;;;;;;;;5054473;28;20825;-74
2023/09/18 07:53:34;;;;;;;10.67;3.07;;;;;;;;;;5054483;28;20461;-74
2023/09/18 07:56:04;;;;;;;13.13;3.13;;;;;;;;;;5054023;28;20452;-74
2023/09/18 07:58:33;;;;;;;10.30;3.13;;;;;;;;;;5054000;28;20986;-74
2023/09/18 08:01:05;;;;;;;10.43;3.83;;;;;;;;;;5053589;28;20555;-74
2023/09/18 08:03:32;;;;;;;10.70;3.67;;;;;;;;;;5054236;28;20425;-75
2023/09/18 08:06:00;;;;;;;16.33;4.50;;;;;;;;;;5053931;28;20425;-74
2023/09/18 08:08:29;;;;;;;11.90;3.87;;;;;;;;;;5053926;28;20947;-74
2023/09/18 08:10:56;;;;;;;10.73;3.30;;;;;;;;;;5054228;28;20479;-74
2023/09/18 08:13:24;;;;;;;9.60;3.07;;;;;;;;;;5054081;28;20430;-74
2023/09/18 08:15:53;;;;;;;11.30;4.53;;;;;;;;;;5053990;28;20496;-74
2023/09/18 08:18:21;;;;;;;8.67;3.73;;;;;;;;;;5053979;28;20441;-74
2023/09/18 08:20:48;;;;;;;15.97;4.83;;;;;;;;;;5053575;28;20473;-74
2023/09/18 08:23:17;;;;;;;13.60;3.57;;;;;;;;;;5053900;28;20444;-75
2023/09/18 08:25:45;;;;;;;18.27;3.67;;;;;;;;;;5053540;28;20985;-74
2023/09/18 08:28:15;;;;;;;13.77;4.00;;;;;;;;;;5053790;28;20837;-74
2023/09/18 08:30:44;;;;;;;15.13;4.60;;;;;;;;;;5054092;28;20438;-74
2023/09/18 08:33:13;;;;;;;16.03;3.83;;;;;;;;;;5053687;28;20487;-74
2023/09/18 08:35:40;;;;;;;17.90;3.83;;;;;;;;;;5053617;28;20441;-74
2023/09/18 08:38:08;;;;;;;14.17;3.73;;;;;;;;;;5053665;28;20524;-74
2023/09/18 08:40:35;;;;;;;20.03;3.53;;;;;;;;;;5053542;28;20867;-74
2023/09/18 08:43:04;;;;;;;9.73;3.27;;;;;;;;;;5053498;28;20444;-75
2023/09/18 08:45:36;;;;;;;17.40;4.00;;;;;;;;;;5052645;28;20919;-74
2023/09/18 08:48:04;;;;;;;10.13;3.30;;;;;;;;;;5053185;28;20422;-74
2023/09/18 08:50:34;;;;;;;12.33;3.47;;;;;;;;;;5053461;28;20438;-74
2023/09/18 08:53:02;;;;;;;18.73;5.67;;;;;;;;;;5053149;28;20495;-74
2023/09/18 08:55:35;;;;;;;19.33;4.13;;;;;;;;;;5053083;28;20520;-74
2023/09/18 08:58:02;;;;;;;15.73;5.40;;;;;;;;;;5053080;28;20425;-75
2023/09/18 09:00:30;;;;;;;18.53;7.60;;;;;;;;;;5052918;28;20527;-74
2023/09/18 09:03:02;;;;;;;19.40;4.17;;;;;;;;;;5052839;28;20438;-74
2023/09/18 09:05:30;;;;;;;10.30;3.70;;;;;;;;;;5053165;28;20433;-74
2023/09/18 09:07:59;;;;;;;17.83;3.90;;;;;;;;;;5053189;28;20520;-74
2023/09/18 09:10:27;;;;;;;11.90;3.10;;;;;;;;;;5052947;28;20447;-75
2023/09/18 09:12:55;;;;;;;15.40;4.00;;;;;;;;;;5053093;28;20429;-74
2023/09/18 09:15:23;;;;;;;17.50;5.30;;;;;;;;;;5053109;28;20429;-75
2023/09/18 09:17:50;;;;;;;14.93;3.97;;;;;;;;;;5053127;28;20445;-75
2023/09/18 09:20:19;;;;;;;10.03;3.67;;;;;;;;;;5052815;28;21077;-74
2023/09/18 09:22:46;;;;;;;13.70;3.30;;;;;;;;;;5052546;28;20429;-74
2023/09/18 09:25:26;;;;;;;9.87;3.60;;;;;;;;;;5053044;28;20492;-74
2023/09/18 09:27:54;;;;;;;11.87;2.93;;;;;;;;;;5052806;28;20456;-75
2023/09/18 09:30:23;;;;;;;12.37;2.93;;;;;;;;;;5053037;28;20473;-75
2023/09/18 09:32:51;;;;;;;6.00;2.60;;;;;;;;;;5052785;28;20437;-74
2023/09/18 09:35:22;;;;;;;14.93;4.60;;;;;;;;;;5053010;28;20837;-74
2023/09/18 09:37:51;;;;;;;11.20;4.33;;;;;;;;;;5052578;28;20442;-75
2023/09/18 09:40:21;;;;;;;9.53;4.73;;;;;;;;;;5052879;28;20473;-75
2023/09/18 09:42:53;;;;;;;10.63;3.43;;;;;;;;;;5052961;28;20499;-75
2023/09/18 09:45:29;;;;;;;14.20;3.30;;;;;;;;;;5052883;28;20785;-74
2023/09/18 09:47:57;;;;;;;13.40;3.50;;;;;;;;;;5052826;28;20508;-74
2023/09/18 09:50:26;;;;;;;12.93;3.47;;;;;;;;;;5052506;28;20445;-75
2023/09/18 09:52:54;;;;;;;6.50;3.33;;;;;;;;;;5052441;28;20474;-75
2023/09/18 09:55:22;;;;;;;21.17;5.73;;;;;;;;;;5052753;28;20433;-74
2023/09/18 09:57:52;;;;;;;6.40;3.30;;;;;;;;;;5052970;28;20448;-75
2023/09/18 10:00:30;;;;;;;9.13;3.27;;;;;;;;;;5052337;28;20481;-75
2023/09/18 10:02:59;;;;;;;7.40;4.07;;;;;;;;;;5052766;28;20421;-74
2023/09/18 10:05:31;;;;;;;12.07;3.77;;;;;;;;;;5052758;28;20429;-75
2023/09/18 10:07:59;;;;;;;10.73;3.10;;;;;;;;;;5052461;28;20960;-74
2023/09/18 10:10:30;;;;;;;8.37;3.10;;;;;;;;;;5051750;28;20481;-74
2023/09/18 10:13:00;;;;;;;13.17;3.30;;;;;;;;;;5052333;28;20432;-75
2023/09/18 10:15:30;;;;;;;11.67;3.70;;;;;;;;;;5055278;28;20911;-74
2023/09/18 10:18:00;;;;;;;11.93;3.00;;;;;;;;;;5056392;28;20433;-74
2023/09/18 10:20:29;;;;;;;7.50;2.80;;;;;;;;;;5056251;28;20480;-74
2023/09/18 10:22:58;;;;;;;14.07;3.70;;;;;;;;;;5055913;28;20460;-74
2023/09/18 10:25:32;;;;;;;13.00;2.77;;;;;;;;;;5056209;28;20437;-73
2023/09/18 10:28:02;;;;;;;12.37;3.23;;;;;;;;;;5056085;28;20429;-75
2023/09/18 10:30:32;;;;;;;8.80;2.90;;;;;;;;;;5047269;28;20469;-74
2023/09/18 10:33:01;;;;;;;21.60;7.00;;;;;;;;;;5034794;28;20500;-74
2023/09/18 10:35:28;;;;;;;21.47;4.53;;;;;;;;;;5035897;28;20434;-74
2023/09/18 10:38:01;;;;;;;6.57;2.27;;;;;;;;;;5030824;28;20435;-74
2023/09/18 10:40:28;;;;;;;7.60;1.93;;;;;;;;;;5033292;28;20849;-75
2023/09/18 10:42:56;;;;;;;8.23;3.53;;;;;;;;;;5031703;28;20469;-74
2023/09/18 10:45:26;;;;;;;6.10;1.70;;;;;;;;;;5034863;28;20427;-74
2023/09/18 10:47:53;;;;;;;9.17;2.70;;;;;;;;;;5035262;28;20481;-74
2023/09/18 10:50:27;;;;;;;11.43;4.30;;;;;;;;;;5035208;28;20500;-77
2023/09/18 10:52:55;;;;;;;6.37;1.90;;;;;;;;;;5035540;28;20470;-74
2023/09/18 10:55:23;;;;;;;4.97;2.17;;;;;;;;;;5035431;28;20438;-74
2023/09/18 10:57:55;;;;;;;8.20;1.73;;;;;;;;;;5035504;28;20438;-76
2023/09/18 11:00:25;;;;;;;7.40;1.77;;;;;;;;;;5031790;28;20489;-74
2023/09/18 11:02:54;;;;;;;4.07;2.40;;;;;;;;;;5035278;28;20508;-74
2023/09/18 11:05:34;;;;;;;15.37;2.83;;;;;;;;;;5035017;28;20833;-73
2023/09/18 11:08:20;;;;;;;10.53;2.30;;;;;;;;;;5034761;28;20434;-74
2023/09/18 11:10:56;;;;;;;7.63;2.10;;;;;;;;;;5024016;28;20492;-74
2023/09/18 11:13:30;;;;;;;10.20;2.30;;;;;;;;;;5033480;28;20822;-74
2023/09/18 11:16:03;;;;;;;5.90;1.50;;;;;;;;;;5034801;28;20418;-74
2023/09/18 11:18:35;;;;;;;3.43;1.50;;;;;;;;;;5041920;28;20876;-74
2023/09/18 11:21:08;;;;;;;14.13;1.73;;;;;;;;;;5042050;28;20532;-74
2023/09/18 11:23:37;;;;;;;4.77;1.73;;;;;;;;;;5037935;28;20442;-74
2023/09/18 11:26:06;;;;;;;4.63;1.43;;;;;;;;;;5033571;28;20521;-74
2023/09/18 11:28:35;;;;;;;2.63;1.20;;;;;;;;;;5034610;28;20433;-74
2023/09/18 11:31:05;;;;;;;4.77;1.50;;;;;;;;;;5043028;28;20442;-74
2023/09/18 11:33:35;;;;;;;5.83;1.20;;;;;;;;;;5051502;28;20816;-74
2023/09/18 11:36:05;;;;;;;8.90;1.67;;;;;;;;;;5039023;28;20499;-77
2023/09/18 11:38:35;;;;;;;4.27;1.10;;;;;;;;;;5054576;28;20924;-77
2023/09/18 11:41:20;;;;;;;3.50;1.30;;;;;;;;;;5054762;28;20487;-77
2023/09/18 11:43:48;;;;;;;6.80;1.43;;;;;;;;;;5035370;28;20897;-74
2023/09/18 11:46:19;;;;;;;8.90;1.93;;;;;;;;;;5034390;28;20434;-77
2023/09/18 11:48:49;;;;;;;5.23;1.50;;;;;;;;;;5036757;28;20418;-76
2023/09/18 11:51:22;;;;;;;6.80;1.50;;;;;;;;;;5040376;28;20450;-76
2023/09/18 11:53:56;;;;;;;3.37;1.20;;;;;;;;;;5053834;28;20476;-76
2023/09/18 11:56:24;;;;;;;4.83;1.60;;;;;;;;;;5053090;28;20417;-77
2023/09/18 11:58:51;;;;;;;5.00;1.03;;;;;;;;;;5052227;28;20790;-77
2023/09/18 12:01:19;;;;;;;4.03;1.13;;;;;;;;;;5053251;28;20480;-76
2023/09/18 12:03:54;;;;;;;2.30;0.80;;;;;;;;;;5054267;28;20511;-76
2023/09/18 12:06:22;;;;;;;4.53;1.47;;;;;;;;;;5054298;28;20467;-77
2023/09/18 12:08:50;;;;;;;2.40;0.80;;;;;;;;;;5053935;28;20433;-77
2023/09/18 12:11:19;;;;;;;3.50;1.03;;;;;;;;;;5053990;28;20452;-76
2023/09/18 12:13:47;;;;;;;2.23;0.90;;;;;;;;;;5053861;28;20424;-76
2023/09/18 12:16:15;;;;;;;5.73;2.17;;;;;;;;;;5053637;28;20970;-76
2023/09/18 12:18:47;;;;;;;3.00;1.10;;;;;;;;;;5053833;28;20864;-76
2023/09/18 12:21:17;;;;;;;2.90;1.10;;;;;;;;;;5053723;28;20855;-76
2023/09/18 12:23:46;;;;;;;2.90;1.33;;;;;;;;;;5054084;28;20816;-76
2023/09/18 12:26:14;;;;;;;6.50;1.30;;;;;;;;;;5053733;28;20433;-76
2023/09/18 12:28:41;;;;;;;3.93;1.10;;;;;;;;;;5053569;28;20433;-76
2023/09/18 12:31:11;;;;;;;2.30;1.00;;;;;;;;;;5053873;28;20439;-77
2023/09/18 12:33:43;;;;;;;2.40;1.03;;;;;;;;;;5053420;28;20555;-76
2023/09/18 12:36:21;;;;;;;4.03;0.90;;;;;;;;;;5052640;28;20505;-76
2023/09/18 12:38:57;;;;;;;3.13;0.93;;;;;;;;;;5052876;28;20426;-76
2023/09/18 12:41:25;;;;;;;4.20;1.00;;;;;;;;;;5053531;28;20457;-76
2023/09/18 12:43:53;;;;;;;3.07;0.97;;;;;;;;;;5053585;28;20911;-76
2023/09/18 12:46:21;;;;;;;2.57;0.83;;;;;;;;;;5053482;28;20433;-76
2023/09/18 12:48:49;;;;;;;3.00;1.00;;;;;;;;;;5053258;28;20445;-76
2023/09/18 12:51:31;;;;;;;2.93;1.00;;;;;;;;;;5052670;28;20437;-76
2023/09/18 12:54:00;;;;;;;2.50;0.80;;;;;;;;;;5053595;28;20898;-76
2023/09/18 12:56:27;;;;;;;2.53;0.90;;;;;;;;;;5053100;28;20483;-76
2023/09/18 12:58:59;;;;;;;2.90;1.00;;;;;;;;;;5053399;28;20444;-76
2023/09/18 13:01:26;;;;;;;2.97;0.80;;;;;;;;;;5052806;28;20479;-76
2023/09/18 13:03:56;;;;;;;3.60;0.87;;;;;;;;;;5052995;28;20487;-76
2023/09/18 13:06:25;;;;;;;3.30;1.23;;;;;;;;;;5053060;28;20847;-76
2023/09/18 13:08:53;;;;;;;2.77;1.47;;;;;;;;;;5052946;28;20454;-76
2023/09/18 13:11:20;;;;;;;2.17;0.90;;;;;;;;;;5053258;28;20438;-76
2023/09/18 13:13:47;;;;;;;2.90;0.90;;;;;;;;;;5053223;28;20445;-76
2023/09/18 13:16:15;;;;;;;2.07;0.83;;;;;;;;;;5052825;28;20433;-76
2023/09/18 13:18:42;;;;;;;3.63;1.10;;;;;;;;;;5053384;28;20467;-76
2023/09/18 13:21:13;;;;;;;3.30;0.90;;;;;;;;;;5052991;28;20468;-76
2023/09/18 13:23:42;;;;;;;2.20;0.90;;;;;;;;;;5053033;28;20433;-76
2023/09/18 13:26:09;;;;;;;2.30;0.80;;;;;;;;;;5052754;28;20479;-75
2023/09/18 13:28:39;;;;;;;2.00;0.77;;;;;;;;;;5053100;28;20437;-76
2023/09/18 13:31:07;;;;;;;2.40;1.00;;;;;;;;;;5053051;28;20433;-76
2023/09/18 13:33:35;;;;;;;2.37;0.70;;;;;;;;;;5053075;28;20871;-76
2023/09/18 13:36:03;;;;;;;2.10;0.70;;;;;;;;;;5052611;28;20463;-76
2023/09/18 13:38:30;;;;;;;7.00;1.23;;;;;;;;;;5052882;28;20433;-76
2023/09/18 13:40:58;;;;;;;2.53;1.00;;;;;;;;;;5053105;28;20483;-76
2023/09/18 13:43:27;;;;;;;4.00;0.90;;;;;;;;;;5053004;28;20476;-76
2023/09/18 13:45:55;;;;;;;2.93;1.00;;;;;;;;;;5052270;28;20920;-76
2023/09/18 13:48:23;;;;;;;2.57;1.17;;;;;;;;;;5054430;28;20445;-76
2023/09/18 13:50:51;;;;;;;2.73;0.80;;;;;;;;;;5056917;28;20791;-77
2023/09/18 13:53:18;;;;;;;2.23;0.90;;;;;;;;;;5056572;28;20499;-76
2023/09/18 13:55:45;;;;;;;2.33;0.80;;;;;;;;;;5056359;28;20495;-76
2023/09/18 13:58:14;;;;;;;2.40;0.90;;;;;;;;;;5056388;28;20992;-76
2023/09/18 14:00:43;;;;;;;2.80;0.83;;;;;;;;;;5056244;28;20504;-76
2023/09/18 14:03:15;;;;;;;2.30;0.90;;;;;;;;;;5056631;28;20819;-76
2023/09/18 14:05:42;;;;;;;2.67;0.90;;;;;;;;;;5056134;28;20980;-76
2023/09/18 14:08:09;;;;;;;3.43;0.90;;;;;;;;;;5056270;28;20830;-76
2023/09/18 14:10:39;;;;;;;2.13;0.83;;;;;;;;;;5056546;28;20429;-76
2023/09/18 14:13:07;;;;;;;5.13;1.47;;;;;;;;;;5056101;28;20931;-76